Tiempo atmosférico en la estación meteorológica de Xàtiva, València/Valencia (88 m.)



Fecha
DESCASC
Temp. máxima en grados centígrados (hora)
DESCASC
Temp. mínima en grados centígrados (hora)
DESCASC
Temp. media en grados centígrados
DESCASC
Racha de viento máxima en m/sg (hora)
DESCASC
Velocidad máxima media en intervalos de 10 minutos(hora)
DESCASC
Precipitaciones diarias en mm
DESCASC
Precipitaciones de 00:00 a 06:00 en mm
DESCASC
Precipitaciones de 06:00 a 12:00 en mm
DESCASC
Precipitaciones de 12:00 a 18:00 en mm
DESCASC
Precipitaciones de 18:00 a 24:00 en mm
DESCASC
05-04-2020 -- (--) -- (--) -- 8.33 (15:50) 4.17 (17:40) 0 0 0 0 0
04-04-2020 -- (--) -- (--) -- 9.44 (17:00) 5.83 (17:10) 0 0 0 0 0
03-04-2020 -- (--) -- (--) -- 10.83 (18:50) 6.67 (18:10) 0.4 0.4 0 0 0
02-04-2020 -- (--) -- (--) -- 9.17 (18:20) 6.39 (17:40) 0.2 0 0 0 0.2
01-04-2020 -- (--) -- (--) -- 9.72 (22:20) 6.39 (22:20) 12.2 0 1 0.4 10.8
31-03-2020 -- (--) -- (--) -- 6.67 (04:10) 3.61 (04:20) 6.2 1.8 4.4 0 0
30-03-2020 -- (--) -- (--) -- -- (--) 6.67 (18:10) 1.2 0 0.2 0.2 0.8
29-03-2020 -- (--) -- (--) -- 10 (23:20) 5.28 (22:50) 0 0 0 0 0
28-03-2020 -- (--) -- (--) -- 6.39 (15:20) 3.33 (16:20) 0 0 0 0 0
27-03-2020 -- (--) -- (--) -- 6.11 (15:10) 4.17 (15:10) 11.2 0.4 3.8 6.6 0.4
26-03-2020 -- (--) -- (--) -- 11.11 (14:10) 5.83 (14:20) 0 0 0 0 0
25-03-2020 -- (--) -- (--) -- 5.83 (00:30) 3.06 (00:30) 8 2.8 3.6 1.6 0
24-03-2020 -- (--) -- (--) -- 12.78 (02:20) 7.78 (08:10) 28.8 15.6 12 1.2 0
23-03-2020 16.9 (14:40) 10.7 (00:00) 13.8 12.22 (14:40) 7.5 (14:50) 18 0.4 0 0.6 17
22-03-2020 13.8 (13:00) 10 (01:30) 11.9 5.28 (12:30) 3.61 (13:10) 12.8 1.4 0 10 1.4
21-03-2020 12.4 (00:00) 10.1 (00:00) 11.3 10 (20:50) 4.72 (20:50) 14 0 0 0.6 13.4
20-03-2020 15.6 (16:10) 11.6 (00:00) 13.6 19.72 (13:50) 3.89 (17:00) 0.2 0 0 0.2 0
19-03-2020 15.9 (14:00) 11.6 (00:00) 13.8 7.22 (15:00) 4.44 (15:00) 0 0 0 0 0
18-03-2020 17 (14:40) 11.5 (00:00) 14.3 9.17 (01:00) 5.28 (14:00) 0.2 0 0.2 0 0
17-03-2020 13.7 (18:30) 8.9 (00:00) 11.3 10 (19:00) 5.83 (20:30) 14.2 2.6 7.4 3.6 0.6
16-03-2020 15.1 (09:40) 8.6 (00:00) 11.9 13.89 (11:10) 7.5 (11:10) 5 0.2 0 3.8 1
15-03-2020 21.2 (15:10) 12.5 (00:00) 16.9 7.78 (14:30) 4.44 (16:20) 0 0 0 0 0
14-03-2020 23.3 (14:50) 9 (00:00) 16.1 7.78 (15:50) 4.72 (18:20) 0 0 0 0 0
13-03-2020 19.4 (15:10) 9.9 (03:40) 14.6 18.33 (15:20) 4.17 (16:50) 0 0 0 0 0
12-03-2020 26.1 (14:50) 9.9 (00:00) 18 5.83 (15:40) 3.89 (15:40) 0 0 0 0 0
11-03-2020 30.2 (14:50) 9.5 (00:00) 19.9 7.22 (16:10) 5 (16:10) 0 0 0 0 0
10-03-2020 26.1 (16:20) 6.9 (00:00) 16.5 6.39 (20:50) 3.33 (20:50) 0 0 0 0 0

Gráficas

Temp. máximas Temp. mínimas Temp. medias Precipitaciones Rachas de viento máximas Velocidades máximas media en intervalos de 10 minutos

Datos horarios

Fecha y hora oficial Temperatura (ºC) Velocidad del viento (km/h) Dirección del viento Racha (km/h) Dirección de racha Precipitación (mm) Presión (hPa) Tendencia (hPa) Humedad (%)
2020-04-08 23:00:00 -- 5 Sudoeste 8 Sudoeste 0 1013.5 1.9 4
2020-04-08 22:00:00 -- 3 Oeste 9 Oeste 0 1013.1 2 4
2020-04-08 21:00:00 -- 5 Norte 15 Nordeste 0 1012.4 1.4 4
2020-04-08 20:00:00 -- 10 Nordeste 16 Este 0 1011.6 0.4 4
2020-04-08 19:00:00 -- 10 Nordeste 22 Nordeste 0 1011.1 -0.6 4
2020-04-08 18:00:00 -- 12 Nordeste 23 Nordeste 0 1011 -1.5 --
2020-04-08 17:00:00 -- 14 Nordeste 30 Norte 0 1011.2 -1.9 --
2020-04-08 16:00:00 -- 12 Norte 28 Nordeste 0 1011.7 -2.4 --
2020-04-08 15:00:00 -- 9 Norte 21 Nordeste 0 1012.5 -2.2 --
2020-04-08 14:00:00 -- 6 Nordeste 20 Nordeste 0 1013.1 -1.9 --
2020-04-08 13:00:00 -- 5 Norte 17 Nordeste 0 1014.1 -1.1 --
2020-04-08 12:00:00 -- 6 Nordeste 14 Nordeste 0 1014.7 -0.5 --
2020-04-08 11:00:00 -- 3 Este 11 Este 0 1015 0.1 --
2020-04-08 10:00:00 -- 6 Sudoeste 12 Sudoeste 0 1015.2 0.4 --
2020-04-08 09:00:00 -- 5 Oeste 10 Oeste 0 1015.2 0.5 4
2020-04-08 08:00:00 -- 5 Oeste 12 Sudoeste 0 1014.9 -0.3 4
2020-04-08 07:00:00 -- 8 Oeste 11 Oeste 0 1014.8 -0.9 4
2020-04-08 06:00:00 -- 6 Oeste 10 Oeste 0 1014.7 -1.1 4
2020-04-08 05:00:00 -- 5 Oeste 11 Sudoeste 0 1015.2 -1 4
2020-04-08 04:00:00 -- 5 Oeste 11 Oeste 0 1015.7 -0.6 4
2020-04-08 03:00:00 -- 6 Oeste 12 Oeste 0 1015.8 -0.4 4
2020-04-08 02:00:00 -- 7 Oeste 10 Sudoeste 0 1016.2 0 4
2020-04-08 01:00:00 -- 8 Oeste 11 Sudoeste 0 1016.3 0.5 4
2020-04-08 00:00:00 -- 8 Sudoeste 11 Sudoeste 0 1016.2 1.2 4
2020-04-07 23:00:00 -- 7 Sudoeste 10 Sudoeste 0 1016.2 1.8 4
2020-04-07 22:00:00 -- 5 Noroeste 7 Noroeste 0 1015.8 1.9 4
2020-04-07 21:00:00 -- 5 Norte 14 Nordeste 0 1015 1.2 4
2020-04-07 20:00:00 -- 6 Nordeste 19 Nordeste 0 1014.4 0.3 4
2020-04-07 19:00:00 -- 12 Nordeste 20 Nordeste 0 1013.9 -0.1 4
2020-04-07 18:00:00 -- 12 Nordeste 26 Nordeste 0 1013.8 -0.8 4
2020-04-07 17:00:00 -- 16 Nordeste 27 Nordeste 0 1014.1 -0.8 4
2020-04-07 16:00:00 -- 15 Nordeste 35 Noroeste 0 1014 -1.4 --
2020-04-07 15:00:00 -- 12 Norte 23 Norte 0 1014.6 -1.1 --
2020-04-07 14:00:00 -- 8 Este 23 Noroeste 0 1014.9 -0.8 --
2020-04-07 13:00:00 -- 5 Norte 21 Norte 0 1015.4 0.1 4
2020-04-07 12:00:00 -- 5 Nordeste 15 Norte 0 1015.7 0.4 --
2020-04-07 11:00:00 -- 5 Nordeste 12 Nordeste 0 1015.7 1 4
2020-04-07 10:00:00 -- 5 Nordeste 9 Nordeste 0 1015.3 1.1 4
2020-04-07 09:00:00 -- 3 Nordeste 7 Norte 0 1015.3 1.1 4
2020-04-07 08:00:00 -- 2 Nordeste 4 Nordeste 0 1014.7 0.4 --
2020-04-07 07:00:00 -- 2 Nordeste 6 Nordeste 0 1014.2 -0.1 --
2020-04-07 06:00:00 -- 2 Norte 6 Nordeste 0 1014.2 -0.5 4
2020-04-07 05:00:00 -- 4 Oeste 8 Oeste 0 1014.3 -0.4 4
2020-04-07 04:00:00 -- 3 Nordeste 6 Nordeste 0 1014.3 -0.5 4
2020-04-07 03:00:00 -- 3 Nordeste 10 Norte 0 1014.7 -0.2 4
2020-04-07 02:00:00 -- 5 Norte 11 Norte 0 1014.7 0.1 4
2020-04-07 01:00:00 -- 5 Norte 12 Noroeste 0 1014.8 0.7 4
2020-04-07 00:00:00 -- 4 Noroeste 15 Norte 0 1014.9 1.6 4
2020-04-06 23:00:00 -- 3 Noroeste 15 Noroeste 0 1014.6 2.1 4
2020-04-06 22:00:00 -- 7 Noroeste 21 Norte 0 1014.1 2 4
2020-04-06 21:00:00 -- 11 Norte 22 Noroeste 0 1013.3 1.4 4
2020-04-06 20:00:00 -- 12 Norte 22 Norte 0 1012.5 0.9 --
2020-04-06 19:00:00 -- 13 Norte 22 Norte 0 1012.1 0.5 4
2020-04-06 18:00:00 -- 17 Norte 26 Norte 0 1011.9 0.2 4
2020-04-06 17:00:00 -- 10 Nordeste 28 Noroeste 0 1011.6 -0.6 --
2020-04-06 16:00:00 -- 15 Norte 24 Noroeste 0 1011.6 -1 --
2020-04-06 15:00:00 -- 10 Nordeste 20 Noroeste 0 1011.7 -1.1 --
2020-04-06 14:00:00 -- 10 Nordeste 19 Nordeste 0 1012.2 -0.5 --
2020-04-06 13:00:00 -- 7 Nordeste 16 Nordeste 0 1012.6 0.2 --
2020-04-06 12:00:00 -- 4 Norte 11 Este 0 1012.8 0.8 4
2020-04-06 11:00:00 -- 4 Nordeste 10 Nordeste 0 1012.7 1.4 4
2020-04-06 10:00:00 -- 3 Sudoeste 10 Oeste 0 1012.4 1.8 --
2020-04-06 09:00:00 -- 5 Oeste 9 Oeste 0 1012 1.6 4
2020-04-06 08:00:00 -- 4 Oeste 11 Oeste 0 1011.3 0.6 4
2020-04-06 07:00:00 -- 4 Oeste 5 Oeste 0 1010.6 -0.1 4
2020-04-06 06:00:00 -- 2 Norte 5 Sudoeste 0 1010.4 -0.6 4
2020-04-06 05:00:00 -- 5 Sudoeste 9 Oeste 0 1010.7 0 4
2020-04-06 04:00:00 -- 6 Oeste 11 Oeste 0 1010.7 -0.2 4
2020-04-06 03:00:00 -- 8 Oeste 10 Oeste 0 1011 0.4 4
2020-04-06 02:00:00 -- 4 Oeste 12 Oeste 0 1010.7 0.4 4
2020-04-06 01:00:00 -- 5 Oeste 10 Oeste 0 1010.9 1.2 4
2020-04-06 00:00:00 -- 5 Oeste 12 Oeste 0 1010.6 1.7 4
2020-04-05 23:00:00 -- 7 Oeste 15 Oeste 0 1010.3 1.6 4
2020-04-05 22:00:00 -- 7 Sudoeste 11 Nordeste 0 1009.7 1.3 4
2020-04-05 21:00:00 -- 4 Nordeste 15 Nordeste 0 1008.9 0.8 4
2020-04-05 20:00:00 -- 9 Nordeste 19 Nordeste 0 1008.7 0.4 4
2020-04-05 19:00:00 -- 11 Nordeste 22 Nordeste 0 1008.4 -0.5 4
2020-04-05 18:00:00 -- 13 Nordeste 25 Nordeste 0 1008.1 -1.4 4
2020-04-05 17:00:00 -- 13 Nordeste 24 Nordeste 0 1008.3 -1.7 4
2020-04-05 16:00:00 -- 14 Norte 30 Nordeste 0 1008.9 -1.7 --
2020-04-05 15:00:00 -- 9 Nordeste 24 Nordeste 0 1009.5 -1.5 --
2020-04-05 14:00:00 -- 10 Nordeste 22 Nordeste 0 1010 -0.9 --
2020-04-05 13:00:00 -- 9 Nordeste 20 Nordeste 0 1010.6 -0.2 --
2020-04-05 12:00:00 -- 5 Nordeste 16 Sudeste 0 1011 0.5 --
2020-04-05 11:00:00 -- 5 Este 11 Nordeste 0 1010.9 1.1 --
2020-04-05 10:00:00 -- 2 Nordeste 10 Oeste 0 1010.8 1.4 4
2020-04-05 09:00:00 -- 5 Oeste 9 Oeste 0 1010.5 1.2 4
2020-04-05 08:00:00 -- 4 Oeste 8 Oeste 0 1009.8 0.6 4
2020-04-05 07:00:00 -- 2 Oeste 5 Oeste 0 1009.4 0 4
2020-04-05 06:00:00 -- 2 Oeste 9 Oeste 0 1009.3 -0.5 4
2020-04-05 05:00:00 -- 6 Oeste 12 Oeste 0 1009.2 -0.6 4
2020-04-05 04:00:00 -- 6 Oeste 11 Oeste 0 1009.4 -0.4 4
2020-04-05 03:00:00 -- 5 Oeste 9 Sudoeste 0 1009.8 0.4 4
2020-04-05 02:00:00 -- 3 Oeste 6 Sudoeste 0 1009.8 0.3 4
2020-04-05 01:00:00 -- 3 Sudoeste 8 Oeste 0 1009.8 0.7 4
2020-04-05 00:00:00 -- 3 Sudoeste 10 Oeste 0 1009.4 1.2 --
2020-04-04 23:00:00 -- 5 Sudoeste 10 Sur 0 1009.5 2 --
2020-04-04 22:00:00 -- 5 Sur 15 Sudeste 0 1009.1 2.2 --
2020-04-04 21:00:00 -- 11 Sudeste 22 Sudeste 0 1008.2 1.7 --
2020-04-04 20:00:00 -- 13 Este 27 Sudeste 0 1007.5 0.8 --
2020-04-04 19:00:00 -- 16 Este 31 Este 0 1006.9 -0.3 --
2020-04-04 18:00:00 -- 16 Este 33 Nordeste 0 1006.5 -1.3 4
2020-04-04 17:00:00 -- 15 Este 34 Nordeste 0 1006.7 -1.5 4
2020-04-04 16:00:00 -- 14 Nordeste 24 Nordeste 0 1007.2 -1.7 --
2020-04-04 15:00:00 -- 11 Nordeste 21 Nordeste 0 1007.8 -1.6 --
2020-04-04 14:00:00 -- 10 Norte 24 Norte 0 1008.2 -1.1 --
2020-04-04 13:00:00 -- 7 Nordeste 18 Nordeste 0 1008.9 -0.3 4
2020-04-04 12:00:00 -- 4 Norte 14 Nordeste 0 1009.4 0.4 --
2020-04-04 11:00:00 -- 3 Norte 13 Sudoeste 0 1009.3 0.9 --
2020-04-04 10:00:00 -- 7 Oeste 15 Oeste 0 1009.2 1 --
2020-04-04 09:00:00 -- 5 Sudoeste 9 Sudoeste 0 1009 1 --
2020-04-04 08:00:00 -- 4 Sudoeste 9 Sudoeste 0 1008.4 0.3 --
2020-04-04 07:00:00 -- 6 Sudoeste 10 Sudoeste 0 1008.2 0.1 --
2020-04-04 06:00:00 -- 5 Sudoeste 10 Sudoeste 0 1008 -0.4 --
2020-04-04 05:00:00 -- 7 Oeste 15 Oeste 0 1008.1 -0.4 --
2020-04-04 04:00:00 -- 9 Oeste 14 Oeste 0 1008.1 -0.2 --
2020-04-04 03:00:00 -- 8 Oeste 14 Oeste 0 1008.4 0.2 --
2020-04-04 02:00:00 -- 8 Oeste 14 Oeste 0 1008.5 1 --
2020-04-04 01:00:00 -- 6 Oeste 11 Sudoeste 0 1008.3 1.9 --
2020-04-04 00:00:00 -- 8 Oeste 14 Oeste 0 1008.2 2.8 --
2020-04-03 23:00:00 -- 8 Sudoeste 13 Oeste 0 1007.5 2.7 --
2020-04-03 22:00:00 -- 5 Norte 9 Sudeste 0 1006.4 2 --
2020-04-03 21:00:00 -- 8 Sudeste 29 Sudeste 0 1005.4 1.1 --
2020-04-03 20:00:00 -- 17 Sudeste 32 Sudeste 0 1004.8 0.4 --
2020-04-03 19:00:00 -- 21 Sudeste 39 Sudeste 0 1004.4 -0.2 --
2020-04-03 18:00:00 -- 20 Sudeste 34 Sudeste 0 1004.3 -1 4
2020-04-03 17:00:00 -- 14 Sudeste 27 Sudeste 0 1004.4 -1.5 --
2020-04-03 16:00:00 -- 7 Este 22 Sudeste 0 1004.6 -1.9 --
2020-04-03 15:00:00 -- 7 Sudoeste 18 Nordeste 0 1005.3 -1.6 --
2020-04-03 14:00:00 -- 5 Nordeste 14 Nordeste 0 1005.9 -0.8 --
2020-04-03 13:00:00 -- 6 Nordeste 16 Nordeste 0 1006.5 0.2 --
2020-04-03 12:00:00 -- 2 Sudeste 14 Oeste 0 1006.9 1.1 4
2020-04-03 11:00:00 -- 7 Oeste 13 Oeste 0 1006.7 1.6 --
2020-04-03 10:00:00 -- 6 Sudoeste 13 Oeste 0 1006.3 2.1 --
2020-04-03 09:00:00 -- 6 Oeste 11 Sudoeste 0 1005.8 1.9 --
2020-04-03 08:00:00 -- 6 Oeste 9 Oeste 0 1005.1 1.3 --
2020-04-03 07:00:00 -- 4 Sudoeste 7 Oeste 0 1004.2 0.3 --
2020-04-03 06:00:00 -- 4 Oeste 7 Sudoeste 0 1003.9 -0.4 --
2020-04-03 05:00:00 -- 0 Calma 6 Nordeste 0 1003.8 -0.8 --
2020-04-03 04:00:00 -- 2 Sudeste 6 Sur 0 1003.9 -0.6 --
2020-04-03 03:00:00 -- 3 Oeste 6 Oeste 0.2 1004.3 -0.3 --
2020-04-03 02:00:00 -- 3 Sudoeste 12 Oeste 0.2 1004.6 0.2 --
2020-04-03 01:00:00 -- 6 Oeste 10 Oeste 0 1004.5 0.7 --
2020-04-03 00:00:00 -- 6 Oeste 13 Noroeste 0 1004.6 1.7 --
2020-04-02 23:00:00 -- 8 Norte 19 Norte 0.2 1004.4 2.1 4
2020-04-02 22:00:00 -- 9 Norte 17 Norte 0 1003.8 2.2 4
2020-04-02 21:00:00 -- 6 Nordeste 18 Este 0 1002.9 2.2 4
2020-04-02 20:00:00 -- 14 Este 25 Nordeste 0 1002.3 2.1 --
2020-04-02 19:00:00 -- 14 Nordeste 33 Nordeste 0 1001.6 1.3 4
2020-04-02 18:00:00 -- 21 Nordeste 31 Nordeste 0 1000.7 0 4
2020-04-02 17:00:00 -- 16 Nordeste 28 Nordeste 0 1000.2 -1 4
2020-04-02 16:00:00 -- 7 Norte 20 Nordeste 0 1000.3 -1.2 4
2020-04-02 15:00:00 -- 8 Este 20 Nordeste 0 1000.7 -1 4
2020-04-02 14:00:00 -- 10 Nordeste 21 Nordeste 0 1001.2 -0.4 4
2020-04-02 13:00:00 -- 10 Nordeste 17 Nordeste 0 1001.5 0.2 --
2020-04-02 12:00:00 -- 3 Sudeste 11 Nordeste 0 1001.7 1 4
2020-04-02 11:00:00 -- 2 Norte 5 Este 0 1001.6 1.2 4
2020-04-02 10:00:00 -- 0 Calma 6 Noroeste 0 1001.3 1 4
2020-04-02 09:00:00 -- 0 Calma 6 Noroeste 0 1000.7 0.4 4
2020-04-02 08:00:00 -- 0 Calma 7 Oeste 0 1000.4 -0.2 4
2020-04-02 07:00:00 -- 4 Oeste 10 Oeste 0 1000.3 -0.9 4
2020-04-02 06:00:00 -- 6 Oeste 10 Oeste 0 1000.3 -1.5 4
2020-04-02 05:00:00 -- 6 Oeste 10 Oeste 0 1000.6 -1.4 4
2020-04-02 04:00:00 -- 5 Oeste 7 Sudoeste 0 1001.2 -1.2 4
2020-04-02 03:00:00 -- 3 Norte 6 Noroeste 0 1001.8 -0.7 4
2020-04-02 02:00:00 -- 3 Oeste 16 Oeste 0 1002 -0.2 4
2020-04-02 01:00:00 -- 7 Noroeste 14 Noroeste 0 1002.4 1 4
2020-04-02 00:00:00 -- 5 Norte 19 Este 0 1002.5 1.4 4
2020-04-01 23:00:00 -- 12 Nordeste 35 Nordeste 0.4 1002.2 2 4
2020-04-01 22:00:00 -- 19 Este 27 Este 10 1001.4 2.3 4
2020-04-01 21:00:00 -- 9 Sudeste 17 Sudeste 0.2 1001.1 2.5 4
2020-04-01 20:00:00 -- 4 Oeste 20 Este 0 1000.2 2.3 --
2020-04-01 19:00:00 -- 14 Este 32 Este 0.2 999.1 0.6 4
2020-04-01 18:00:00 -- 14 Este 27 Nordeste 0.4 998.6 -0.9 4
2020-04-01 17:00:00 -- 9 Norte 26 Nordeste 0 997.9 -2.1 4
2020-04-01 16:00:00 -- 6 Este 14 Norte 0 998.5 -2 --
2020-04-01 15:00:00 -- 11 Norte 26 Norte 0 999.5 -1.5 4
2020-04-01 14:00:00 -- 3 Este 17 Oeste 0 1000 -1.2 --
2020-04-01 13:00:00 -- 6 Sur 21 Oeste 0 1000.5 -0.4 --
2020-04-01 12:00:00 -- 5 Sudoeste 16 Sudoeste 0 1001 0.1 4
2020-04-01 11:00:00 -- 7 Oeste 21 Oeste 0 1001.2 0.8 4
2020-04-01 10:00:00 -- 9 Sudoeste 18 Oeste 0 1000.9 0.8 4
2020-04-01 09:00:00 -- 4 Oeste 11 Oeste 0 1000.9 0.4 4
2020-04-01 08:00:00 -- 6 Oeste 12 Sur 0.2 1000.4 -0.1 4
2020-04-01 07:00:00 -- 2 Nordeste 14 Oeste 0.8 1000.1 -0.9 4
2020-04-01 06:00:00 -- 5 Sudoeste 7 Sudoeste 0 1000.5 -0.8 4
2020-04-01 05:00:00 -- 0 Calma 8 Oeste 0 1000.5 -1.2 4
2020-04-01 04:00:00 -- 4 Noroeste 8 Sudoeste 0 1001 -1.1 4
2020-04-01 03:00:00 -- 4 Oeste 8 Noroeste 0 1001.3 -0.7 4
2020-04-01 02:00:00 -- 3 Oeste 8 Sudoeste 0 1001.7 -0.5 4
2020-04-01 01:00:00 -- 5 Sudoeste 8 Sudoeste 0 1002.1 0.4 4
2020-04-01 00:00:00 -- 0 Calma 5 Sur 0 1002 1.3 4
2020-03-31 23:00:00 -- 3 Sur 9 Nordeste 0 1002.2 2 4
2020-03-31 22:00:00 -- 2 Este 15 Nordeste 0 1001.7 2.2 4
2020-03-31 21:00:00 -- 10 Nordeste 21 Nordeste 0 1000.7 1.3 4
2020-03-31 20:00:00 -- 5 Este 9 Sudeste 0 1000.2 1 4
2020-03-31 19:00:00 -- 4 Sudeste 6 Sudeste 0 999.5 0.2 4
2020-03-31 18:00:00 -- 4 Sudoeste 9 Sudoeste 0 999.4 -0.1 4
2020-03-31 17:00:00 -- 3 Sur 7 Sudoeste 0 999.2 -0.4 4
2020-03-31 16:00:00 -- 0 Calma 8 Sudoeste 0 999.3 -0.6 4
2020-03-31 15:00:00 -- 4 Sudoeste 13 Sudoeste 0 999.5 -0.8 4
2020-03-31 14:00:00 -- 4 Sudoeste 11 Oeste 0 999.6 -0.8 4
2020-03-31 13:00:00 -- 3 Oeste 8 Sudoeste 0 999.9 -0.6 4
2020-03-31 12:00:00 -- 3 Oeste 10 Oeste 0 1000.3 0.5 4
2020-03-31 11:00:00 -- 6 Oeste 10 Oeste 0.2 1000.4 0.4 4
2020-03-31 10:00:00 -- 4 Oeste 17 Sudoeste 1.6 1000.5 0.6 6
2020-03-31 09:00:00 -- 5 Oeste 10 Sudoeste 2 999.8 -0.6 6
2020-03-31 08:00:00 -- 5 Oeste 10 Oeste 0.4 1000 -0.7 5
2020-03-31 07:00:00 -- 4 Oeste 10 Noroeste 0.2 999.9 -1.6 5
2020-03-31 06:00:00 -- 5 Norte 19 Norte 0.2 1000.4 -1.6 5
2020-03-31 05:00:00 -- 12 Norte 24 Norte 0 1000.7 -1.6 5
2020-03-31 04:00:00 -- 11 Noroeste 22 Noroeste 0 1001.5 -1.3 4
2020-03-31 03:00:00 -- 9 Norte 19 Nordeste 0.4 1002 -0.9 5
2020-03-31 02:00:00 -- 8 Norte 13 Norte 0.6 1002.3 -1 6
2020-03-31 01:00:00 -- 6 Norte 18 Nordeste 0.6 1002.8 -0.5 5
2020-03-31 00:00:00 -- 9 Nordeste 15 Norte 0.2 1002.9 -0.2 4
2020-03-30 23:00:00 -- 6 Nordeste 15 Norte 0 1003.3 0.4 4
2020-03-30 22:00:00 -- 6 Nordeste 8 Nordeste 0 1003.3 0.7 4
2020-03-30 21:00:00 -- 5 Norte 10 Norte 0.2 1003.1 0.7 4
2020-03-30 20:00:00 -- 8 Norte 13 Nordeste 0 1002.9 0.7 4
2020-03-30 19:00:00 -- 7 Nordeste 113 Noroeste 0.4 1002.6 0.5 --
2020-03-30 18:00:00 -- 17 Este 105 Este 0.2 1002.4 0 --
2020-03-30 17:00:00 -- 13 Nordeste 34 Este 0 1002.2 -0.8 4
2020-03-30 16:00:00 -- 18 Nordeste 31 Nordeste 0 1002.1 -1.1 --
2020-03-30 15:00:00 -- 18 Este -- -- -- 1002.4 -1.2 --
2020-03-30 14:00:00 -- 13 Este 24 Este 0 1003 -0.4 --
2020-03-30 13:00:00 -- 10 Este -- -- -- 1003.2 0.3 --
2020-03-30 12:00:00 -- 4 Sudoeste 9 Sudoeste 0.2 1003.6 1.1 --
2020-03-30 11:00:00 -- 4 Oeste 11 Oeste 0 1003.4 1.2 --
2020-03-30 10:00:00 -- 6 Sudoeste 12 Oeste 0 1002.9 1.1 4
2020-03-30 09:00:00 -- 5 Sudoeste 10 Oeste 0 1002.5 0.6 4
2020-03-30 08:00:00 -- 6 Oeste 13 Oeste 0 1002.2 0.2 4
2020-03-30 07:00:00 -- 8 Oeste 12 Oeste 0 1001.8 -0.7 --
2020-03-30 06:00:00 -- 3 Oeste 9 Sudoeste 0 1001.9 -0.9 --
2020-03-30 05:00:00 -- 8 Sudoeste 12 Sudoeste 0 1002 -0.7 4
2020-03-30 04:00:00 -- 5 Sudoeste 13 Sudoeste 0 1002.5 -0.3 --
2020-03-30 03:00:00 -- 6 Sur 12 Sudoeste 0 1002.8 0.2 --
2020-03-30 02:00:00 -- 9 Sudoeste 27 Sudoeste 0 1002.7 -0.1 4
2020-03-30 01:00:00 -- 13 Sudoeste 32 Sudoeste 0 1002.8 0.1 --
2020-03-30 00:00:00 -- 19 Sudoeste 36 Sudoeste 0 1002.6 0.3 4
2020-03-29 23:00:00 -- 19 Sudoeste 35 Sudoeste 0 1002.8 0.9 4
2020-03-29 22:00:00 -- 15 Sudoeste 25 Sudoeste 0 1002.7 0.9 --
2020-03-29 21:00:00 -- 15 Sudoeste 24 Sudoeste 0 1002.3 0.1 --
2020-03-29 20:00:00 -- 15 Sudoeste 30 Sudoeste 0 1001.9 -0.9 4
2020-03-29 19:00:00 -- 10 Sudoeste 26 Sudoeste 0 1001.8 -1.8 4
2020-03-29 18:00:00 -- 6 Sudeste 17 Oeste 0 1002.2 -2.3 --
2020-03-29 17:00:00 -- 6 Noroeste 17 Sudoeste 0 1002.8 -2.6 --
2020-03-29 16:00:00 -- 4 Noroeste 20 Sudoeste 0 1003.6 -2.5 --
2020-03-29 15:00:00 -- 4 Oeste 18 Sudoeste 0 1004.5 -2.3 --
2020-03-29 14:00:00 -- 8 Sur 21 Sur 0 1005.4 -1.9 --
2020-03-29 13:00:00 -- 6 Sudoeste 15 Sudoeste 0 1006.1 -1.4 4
2020-03-29 12:00:00 -- 5 Este 13 Sudeste 0 1006.8 -0.7 4
2020-03-29 11:00:00 -- 4 Este 15 Sudoeste 0 1007.3 0 --
2020-03-29 10:00:00 -- 3 Sudeste 9 Oeste 0 1007.5 0.3 4
2020-03-29 09:00:00 -- 0 Calma 5 Oeste 0 1007.5 0.1 4
2020-03-29 08:00:00 -- 4 Oeste 9 Sudoeste 0 1007.3 -0.3 4
2020-03-29 07:00:00 -- 3 Sudoeste 8 Oeste 0 1007.2 -0.9 4
2020-03-29 06:00:00 -- 5 Sudoeste 11 Sudoeste 0 1007.4 -1.3 4
2020-03-29 05:00:00 -- 5 Sudoeste 8 Oeste 0 1007.6 -1.3 --
2020-03-29 03:00:00 -- 12 Sudoeste 23 Sudoeste 0 1008.7 -0.3 --
2020-03-29 01:00:00 -- 8 Oeste 14 Oeste 0 1008.9 0 4
2020-03-29 00:00:00 -- 6 Oeste 15 Oeste 0 1009.1 0.7 4
2020-03-28 23:00:00 -- 11 Oeste 16 Oeste 0 1009 1.3 --
2020-03-28 22:00:00 -- 9 Oeste 15 Sudoeste 0 1008.9 1.7 4
2020-03-28 21:00:00 -- 7 Sudoeste 10 Sudoeste 0 1008.4 1.6 4
2020-03-28 20:00:00 -- 0 Calma 9 Nordeste 0 1007.7 1.2 4
2020-03-28 19:00:00 -- 8 Este 19 Norte 0 1007.2 0.6 4
2020-03-28 18:00:00 -- 8 Norte 21 Este 0 1006.8 -0.3 4
2020-03-28 17:00:00 -- 12 Nordeste 22 Norte 0 1006.5 -1 4
2020-03-28 16:00:00 -- 9 Norte 23 Norte 0 1006.6 -1.3 4
2020-03-28 15:00:00 -- 9 Norte 19 Norte 0 1007.1 -1.1 --
2020-03-28 14:00:00 -- 6 Nordeste 21 Norte 0 1007.5 -0.8 --
2020-03-28 13:00:00 -- 6 Este 20 Nordeste 0 1007.9 -0.2 --
2020-03-28 12:00:00 -- 5 Este 14 Sudeste 0 1008.2 0.6 --
2020-03-28 11:00:00 -- 4 Noroeste 18 Oeste 0 1008.3 1 --
2020-03-28 10:00:00 -- 7 Sudoeste 16 Sudoeste 0 1008.1 1.1 --
2020-03-28 09:00:00 -- 10 Sudoeste 18 Oeste 0 1007.6 1 4
2020-03-28 08:00:00 -- 5 Oeste 11 Sudoeste 0 1007.3 0.9 7
2020-03-28 07:00:00 -- 7 Sudoeste 14 Sudoeste 0 1007 0.7 9
2020-03-28 06:00:00 -- 9 Oeste 13 Oeste 0 1006.6 0.3 10
2020-03-28 05:00:00 -- 5 Sudoeste 11 Oeste 0 1006.4 0.1 10
2020-03-28 04:00:00 -- 6 Sudoeste 9 Sudoeste 0 1006.3 0.1 9
2020-03-28 03:00:00 -- 0 Calma 6 Sudoeste 0 1006.3 0.1 8
2020-03-28 02:00:00 -- 0 Calma 7 Oeste 0 1006.3 0.5 9
2020-03-28 01:00:00 -- 4 Oeste 10 Sudoeste 0 1006.2 0.7 9
2020-03-28 00:00:00 -- 4 Oeste 6 Sudoeste 0 1006.2 1.3 8
2020-03-27 23:00:00 -- 2 Oeste 6 Oeste 0 1005.8 1.4 5
2020-03-27 22:00:00 -- 5 Oeste 9 Sudoeste 0 1005.5 1.5 5
2020-03-27 21:00:00 -- 3 Oeste 6 Sudoeste 0 1004.9 1.2 5
2020-03-27 20:00:00 -- 4 Sudoeste 9 Oeste 0.2 1004.4 0.8 4
2020-03-27 19:00:00 -- 5 Oeste 8 Oeste 0.2 1004 0.5 4
2020-03-27 18:00:00 -- 2 Norte 11 Norte 1 1003.7 0.2 4
2020-03-27 17:00:00 -- 5 Norte 11 Norte 1.2 1003.6 -0.2 5
2020-03-27 16:00:00 -- 8 Norte 22 Norte 1.4 1003.5 -0.5 4
2020-03-27 15:00:00 -- 14 Norte 21 Norte 0.8 1003.5 -0.4 4
2020-03-27 14:00:00 -- 4 Nordeste 12 Norte 1.8 1003.8 0.1 4
2020-03-27 13:00:00 -- 4 Nordeste -- -- -- 1004 0.7 4
2020-03-27 12:00:00 -- 5 Oeste -- -- -- 1003.9 1.2 4
2020-03-27 11:00:00 -- 4 Sudoeste 9 Oeste 1 1003.7 1.6 4
2020-03-27 10:00:00 -- 6 Sudoeste 9 Sudoeste 0 1003.3 1.1 4
2020-03-27 09:00:00 -- 4 Oeste 8 Sur 0 1002.7 0.7 4
2020-03-27 08:00:00 -- 3 Este 6 Oeste 0.2 1002.1 0.2 4
2020-03-27 07:00:00 -- 4 Oeste 8 Este 0.8 1002.2 0 4
2020-03-27 06:00:00 -- 4 Nordeste 7 Noroeste 0.4 1002 -0.4 4
2020-03-27 05:00:00 -- 0 Calma 8 Sur 0 1001.9 -0.6 4
2020-03-27 04:00:00 -- 3 Oeste 12 Noroeste 0 1002.2 -0.1 --
2020-03-27 03:00:00 -- 0 Calma 19 Norte 0 1002.4 0.6 --
2020-03-27 02:00:00 -- 10 Norte 21 Norte 0 1002.5 0.7 --
2020-03-27 01:00:00 -- 11 Norte 19 Norte 0 1002.3 1 --
2020-03-27 00:00:00 -- 0 Calma 7 Norte 0 1001.8 1.1 4
2020-03-26 23:00:00 -- 3 Norte 9 Nordeste 0 1001.8 2 4
2020-03-26 22:00:00 -- 2 Nordeste 13 Nordeste 0 1001.3 1.9 --
2020-03-26 21:00:00 -- 9 Nordeste 17 Nordeste 0 1000.7 2.3 --
2020-03-26 20:00:00 -- 3 Norte 14 Norte 0 999.8 2.2 4
2020-03-26 19:00:00 -- 6 Nordeste 25 Nordeste 0 999.4 2.8 --
2020-03-26 18:00:00 -- 17 Nordeste 32 Este 0 998.4 1.7 4
2020-03-26 17:00:00 -- 21 Este 36 Este 0 997.6 0.8 --
2020-03-26 16:00:00 -- 13 Nordeste 28 Noroeste 0 996.6 -0.6 4
2020-03-26 15:00:00 -- 13 Noroeste 40 Nordeste 0 996.7 -1 --
2020-03-26 14:00:00 -- 17 Norte 33 Noroeste 0 996.8 -1.5 --
2020-03-26 13:00:00 -- 6 Nordeste 26 Norte 0 997.2 -1.2 --
2020-03-26 12:00:00 -- 9 Noroeste 19 Oeste 0 997.7 -0.8 --
2020-03-26 11:00:00 -- 8 Norte 22 Sudoeste 0 998.3 -0.2 --
2020-03-26 10:00:00 -- 8 Sudoeste 17 Oeste 0 998.4 0 --
2020-03-26 09:00:00 -- 6 Oeste 11 Oeste 0 998.5 -0.2 5
2020-03-26 08:00:00 -- 4 Oeste 7 Norte 0 998.5 -0.3 11
2020-03-26 07:00:00 -- 3 Oeste 10 Sudoeste 0 998.4 -1.2 8
2020-03-26 06:00:00 -- 3 Oeste 7 Noroeste 0 998.7 -1.8 10
2020-03-26 05:00:00 -- 3 Sudoeste 16 Sudoeste 0 998.8 -3 4
2020-03-26 04:00:00 -- 7 Sudoeste 14 Sur 0 999.6 -2.8 4
2020-03-26 03:00:00 -- 5 Sudoeste 10 Nordeste 0 1000.5 -3.2 9
2020-03-26 02:00:00 -- 4 Sur 9 Oeste 0 1001.8 -3.1 10
2020-03-26 01:00:00 -- 6 Sudeste 10 Este 0 1002.4 -2.9 6
2020-03-26 00:00:00 -- 3 Oeste 10 Sudoeste 0 1003.7 -1.9 6
2020-03-25 23:00:00 -- 5 Sudoeste 8 Oeste 0 1004.9 -0.2 5
2020-03-25 22:00:00 -- 2 Oeste 4 Noroeste 0 1005.3 0 6
2020-03-25 21:00:00 -- 3 Oeste 9 Oeste 0 1005.6 -0.1 6
2020-03-25 20:00:00 -- 5 Sudoeste 8 Sudoeste 0 1005.1 -0.7 4
2020-03-25 19:00:00 -- 3 Oeste 6 Oeste 0 1005.3 -0.6 4
2020-03-25 18:00:00 -- 2 Norte 11 Este 0.2 1005.7 -0.8 4
2020-03-25 17:00:00 -- 8 Este 15 Este 0.2 1005.8 -1 5
2020-03-25 16:00:00 -- 6 Nordeste 14 Norte 0 1005.9 -1.1 4
2020-03-25 15:00:00 -- 4 Oeste 9 Oeste 0.4 1006.5 -0.7 4
2020-03-25 14:00:00 -- 4 Nordeste 10 Nordeste 0.4 1006.8 -0.5 4
2020-03-25 13:00:00 -- 3 Oeste 9 Oeste 0.4 1007 -0.3 4
2020-03-25 12:00:00 -- 4 Oeste 9 Oeste 1.4 1007.2 0.2 6
2020-03-25 11:00:00 -- 5 Oeste 9 Oeste 0.4 1007.3 0.6 9
2020-03-25 10:00:00 -- 5 Oeste 9 Oeste 1.2 1007.3 1 9
2020-03-25 09:00:00 -- 3 Noroeste 8 Sudoeste 0.4 1007 0.6 11
2020-03-25 08:00:00 -- 4 Sudoeste 10 Oeste 0 1006.7 0.3 10
2020-03-25 07:00:00 -- 3 Oeste 9 Sudoeste 0.2 1006.3 0.2 9
2020-03-25 06:00:00 -- 6 Sudoeste 14 Oeste 0.2 1006.4 -0.1 9
2020-03-25 05:00:00 -- 3 Nordeste 12 Oeste 0.2 1006.4 -0.2 10
2020-03-25 04:00:00 -- 5 Oeste 18 Norte 0.8 1006.1 -0.4 12
2020-03-25 03:00:00 -- 7 Norte 15 Nordeste 1.2 1006.5 -0.1 7
2020-03-25 02:00:00 -- 5 Nordeste 15 Norte 0.4 1006.6 -0.3 4
2020-03-25 01:00:00 -- 8 Norte 21 Nordeste 0 1006.5 -0.6 4
2020-03-25 00:00:00 -- 8 Nordeste 15 Nordeste 0 1006.6 -0.3 4
2020-03-24 23:00:00 -- 7 Nordeste 27 Nordeste 0 1006.9 0.6 4
2020-03-24 22:00:00 -- 11 Nordeste 25 Nordeste 0 1007.1 1.4 --
2020-03-24 21:00:00 -- 11 Nordeste 27 Nordeste 0 1006.9 1.7 4
2020-03-24 20:00:00 -- 14 Nordeste 30 Nordeste 0 1006.3 1.2 4
2020-03-24 19:00:00 -- 18 Nordeste 39 Nordeste 0 1005.7 0.4 4
2020-03-24 18:00:00 -- 20 Nordeste 36 Nordeste 0 1005.2 -0.3 4
2020-03-24 17:00:00 -- 19 Nordeste 38 Nordeste 0 1005.1 -0.7 4
2020-03-24 16:00:00 -- 18 Nordeste 37 Nordeste 0 1005.3 -0.9 4
2020-03-24 15:00:00 -- 17 Nordeste 32 Nordeste 0 1005.5 -0.8 10
2020-03-24 14:00:00 -- 15 Nordeste 32 Nordeste 0.8 1005.8 0 20
2020-03-24 13:00:00 -- 15 Nordeste 32 Nordeste 0.4 1006.2 0.7 20
2020-03-24 12:00:00 -- 22 Nordeste 39 Nordeste 0.8 1006.3 0.9 15
2020-03-24 11:00:00 -- 19 Nordeste 32 Nordeste 0 1005.8 0.7 16
2020-03-24 10:00:00 -- 17 Nordeste 35 Nordeste 0.4 1005.5 1.3 20
2020-03-24 09:00:00 -- 15 Nordeste 46 Nordeste 4.8 1005.4 1.2 19
2020-03-24 08:00:00 -- 22 Este 41 Este 5.6 1005.1 0.6 24
2020-03-24 07:00:00 -- 15 Nordeste 40 Nordeste 0.4 1004.2 -0.4 15
2020-03-24 06:00:00 -- 17 Nordeste 33 Nordeste 5.2 1004.2 -1 --
2020-03-24 05:00:00 -- 10 Este 20 Sudeste 1.8 1004.5 -0.9 --
2020-03-24 04:00:00 -- 14 Sudeste 43 Este 7.4 1004.6 -1 --
2020-03-24 03:00:00 13.9 25 Este 46 Este 0.2 1005.2 -0.4 79
2020-03-24 02:00:00 13.7 19 Este 33 Este 0.4 1005.4 -0.5 83
2020-03-24 01:00:00 13.6 18 Este 32 Nordeste 0.6 1005.6 -0.3 86
2020-03-24 00:00:00 13.2 13 Nordeste 28 Nordeste 1 1005.6 0 89
2020-03-23 23:00:00 13.4 13 Nordeste 28 Nordeste 0.6 1005.9 0.6 88
2020-03-23 22:00:00 13.4 14 Nordeste 34 Nordeste 0.4 1005.9 1.1 88
2020-03-23 21:00:00 13.4 14 Este 31 Nordeste 4.2 1005.6 0.8 90
2020-03-23 20:00:00 13.7 18 Este 40 Nordeste 4.4 1005.3 0.8 88
2020-03-23 19:00:00 13.3 21 Nordeste 41 Nordeste 6.4 1004.8 0.2 91
2020-03-23 18:00:00 14.2 14 Nordeste 31 Nordeste 0.2 1004.8 0.2 89
2020-03-23 17:00:00 15.1 17 Nordeste 34 Este 0.2 1004.5 -0.5 83
2020-03-23 16:00:00 15.8 17 Nordeste 38 Nordeste 0 1004.6 -0.8 80
2020-03-23 15:00:00 16.4 24 Nordeste 44 Nordeste 0 1004.6 -1.2 73
2020-03-23 14:00:00 16.2 5 Oeste 18 Sudoeste 0 1005 -1 82
2020-03-23 13:00:00 16 5 Oeste 8 Oeste 0.2 1005.4 -0.4 83
2020-03-23 12:00:00 15.2 3 Nordeste 9 Sudeste 0 1005.8 0.8 86
2020-03-23 11:00:00 14 4 Este 10 Nordeste 0 1006 1.4 93
2020-03-23 10:00:00 12.6 6 Nordeste 10 Nordeste 0 1005.8 1.7 95
2020-03-23 09:00:00 12.1 0 Calma 4 Oeste 0 1005 1.3 95
2020-03-23 08:00:00 11.1 0 Calma 5 Norte 0 1004.6 0.9 95
2020-03-23 07:00:00 10.9 0 Calma 7 Sudoeste 0 1004.1 0.7 95
2020-03-23 06:00:00 10.9 3 Oeste 9 Oeste 0.2 1003.7 0.2 95
2020-03-23 05:00:00 11 2 Oeste 4 Norte 0 1003.7 -0.1 95
2020-03-23 04:00:00 11.3 3 Oeste 7 Sudoeste 0 1003.4 -0.6 95
2020-03-23 03:00:00 11.3 6 Oeste 8 Oeste 0 1003.5 -0.6 94
2020-03-23 02:00:00 11.5 3 Oeste 5 Oeste 0 1003.8 -0.1 94
2020-03-23 01:00:00 11.6 0 Calma 3 Norte 0.2 1004 0.4 94
2020-03-23 00:00:00 12 0 Calma 6 Nordeste 0 1004.1 0.9 94
2020-03-22 23:00:00 12 2 Norte 7 Nordeste 0 1003.9 1.2 94
2020-03-22 22:00:00 12 0 Calma 7 Nordeste 0 1003.6 1.4 94
2020-03-22 21:00:00 11.9 2 Nordeste 10 Norte 0 1003.2 1.4 94
2020-03-22 20:00:00 12.1 4 Norte 10 Nordeste 0.6 1002.7 1.2 94
2020-03-22 19:00:00 12.2 8 Norte 13 Norte 0.8 1002.2 0.6 94
2020-03-22 18:00:00 12.4 8 Norte 13 Nordeste 1.8 1001.8 0.2 93
2020-03-22 17:00:00 12.7 8 Nordeste 15 Norte 1.8 1001.5 -0.5 91
2020-03-22 16:00:00 13 7 Norte 13 Norte 0.2 1001.6 -0.6 91
2020-03-22 15:00:00 13.1 6 Nordeste 17 Nordeste 3 1001.6 -0.7 91
2020-03-22 14:00:00 12.4 9 Nordeste 18 Norte 3.2 1002 -0.3 89
2020-03-22 13:00:00 13.6 11 Norte 19 Nordeste 0 1002.2 0.1 81
2020-03-22 12:00:00 13.2 8 Norte 15 Norte 0 1002.3 0.7 83
2020-03-22 11:00:00 12.3 4 Norte 8 Norte 0 1002.3 0.8 89
2020-03-22 10:00:00 11.5 3 Noroeste 7 Oeste 0 1002.1 1.1 91
2020-03-22 09:00:00 11.2 3 Sudoeste 9 Oeste 0 1001.6 0.9 94
2020-03-22 08:00:00 10.5 2 Noroeste 4 Nordeste 0 1001.5 0.7 94
2020-03-22 07:00:00 10.2 2 Sudoeste 4 Sudoeste 0 1001 0 94
2020-03-22 06:00:00 10.2 0 Calma 5 Noroeste 0 1000.7 -0.8 94
2020-03-22 05:00:00 10.2 2 Sudeste 5 Sudoeste 0 1000.8 -1.2 94
2020-03-22 04:00:00 10.1 2 Sudoeste 6 Noroeste 0.2 1001 -1.4 94
2020-03-22 03:00:00 10.1 3 Sur 6 Oeste 1 1001.5 -1.2 94
2020-03-22 02:00:00 10.1 0 Calma 4 Oeste 0 1002 -1.1 94
2020-03-22 01:00:00 10.1 3 Noroeste 6 Oeste 0.2 1002.4 -0.6 94
2020-03-22 00:00:00 10.1 0 Calma 6 Este 0.2 1002.7 -0.2 93
2020-03-21 23:00:00 10.1 3 Sur 12 Sudoeste 2 1003.1 1 92
2020-03-21 22:00:00 10.1 4 Oeste 21 Oeste 5.8 1003 1.2 92
2020-03-21 21:00:00 10.5 14 Oeste 36 Sudoeste 5.4 1002.9 1.3 91
2020-03-21 20:00:00 12 6 Sudoeste 9 Sudoeste 0 1002.1 0.4 92
2020-03-21 19:00:00 12.1 5 Oeste 9 Oeste 0 1001.8 -0.4 92
2020-03-21 18:00:00 12.1 3 Sudoeste 6 Sur 0 1001.6 -0.9 90
2020-03-21 17:00:00 12.1 0 Calma 10 Este 0 1001.7 -1.6 92
2020-03-21 16:00:00 11.9 5 Nordeste 11 Nordeste 0 1002.2 -1.6 93
2020-03-21 15:00:00 12 4 Nordeste 11 Oeste 0.2 1002.5 -1.6 92
2020-03-21 14:00:00 11.5 7 Oeste 13 Oeste 0.2 1003.3 -1.1 92
2020-03-21 13:00:00 11.5 4 Oeste 9 Noroeste 0.2 1003.8 -0.7 91
2020-03-21 12:00:00 11.6 3 Noroeste 9 Noroeste 0 1004.1 -0.2 87
2020-03-21 11:00:00 11.5 6 Sudoeste 14 Sudoeste 0 1004.4 0.4 89
2020-03-21 10:00:00 11.2 9 Sudoeste 14 Sudoeste 0 1004.5 0.5 88
2020-03-21 09:00:00 11.5 6 Oeste 9 Oeste 0 1004.3 0.3 82
2020-03-21 08:00:00 11.5 0 Calma 5 Noroeste 0 1004 -0.1 84
2020-03-21 07:00:00 11.5 3 Este 10 Nordeste 0 1004 -0.5 88
2020-03-21 06:00:00 11.6 6 Norte 13 Norte 0 1004 -1.1 89
2020-03-21 05:00:00 11.8 8 Norte 15 Nordeste 0 1004.1 -1.5 90
2020-03-21 04:00:00 11.9 5 Nordeste 11 Norte 0 1004.5 -1.7 91
2020-03-21 03:00:00 12 5 Norte 10 Noroeste 0 1005.1 -1.6 91
2020-03-21 02:00:00 12.2 3 Sudoeste 8 Oeste 0 1005.6 -1.3 91
2020-03-21 01:00:00 12.2 5 Oeste 9 Oeste 0 1006.2 -0.7 92
2020-03-21 00:00:00 12.4 4 Oeste 7 Noroeste 0 1006.7 0.3 91
2020-03-20 23:00:00 12.5 0 Calma 10 Norte 0 1006.9 0.6 90
2020-03-20 22:00:00 12.7 7 Norte 16 Norte 0 1006.9 0.6 89
2020-03-20 21:00:00 12.9 10 Norte 17 Norte 0 1006.4 0.3 89
2020-03-20 20:00:00 13.1 11 Norte 19 Norte 0 1006.3 -0.1 85
2020-03-20 19:00:00 13.3 8 Norte 21 Norte 0 1006.3 -0.5 81
2020-03-20 18:00:00 14 14 Norte 27 Norte 0 1006.1 -1.1 76
2020-03-20 17:00:00 15.1 14 Norte 23 Nordeste 0 1006.4 -1.5 73
2020-03-20 16:00:00 15.2 12 Norte 19 Norte 0 1006.8 -1.5 71
2020-03-20 15:00:00 14 8 Nordeste 15 Nordeste 0 1007.2 -1.4 79
2020-03-20 14:00:00 13.9 2 Este 71 Noroeste 0 1007.9 -0.7 82
2020-03-20 13:00:00 13 6 Norte 14 Norte 0.2 1008.3 -0.3 91
2020-03-20 12:00:00 12.7 9 Nordeste 19 Nordeste 0 1008.6 0.3 90
2020-03-20 11:00:00 13.2 12 Norte 20 Norte 0 1008.6 0.6 87
2020-03-20 10:00:00 12.7 8 Norte 18 Nordeste 0 1008.6 0.9 88
2020-03-20 09:00:00 12.3 7 Nordeste 13 Norte 0 1008.3 0.6 89
2020-03-20 08:00:00 11.8 2 Nordeste 9 Norte 0 1008 0.2 93
2020-03-20 07:00:00 11.8 5 Nordeste 13 Nordeste 0 1007.7 -0.2 92
2020-03-20 06:00:00 11.9 5 Nordeste 11 Nordeste 0 1007.7 -0.7 92
2020-03-20 05:00:00 11.8 4 Nordeste 11 Nordeste 0 1007.8 -1.1 93
2020-03-20 04:00:00 12 5 Norte 10 Norte 0 1007.9 -1.2 93
2020-03-20 03:00:00 12 2 Noroeste 6 Norte 0 1008.4 -1.2 93
2020-03-20 02:00:00 12.5 4 Este 11 Nordeste 0 1008.9 -1.2 92
2020-03-20 01:00:00 12.4 4 Norte 15 Norte 0 1009.1 -1 92
2020-03-20 00:00:00 12.6 8 Norte 14 Nordeste 0 1009.6 -0.5 93
2020-03-19 23:00:00 12.8 4 Norte 15 Norte 0 1010.1 0.2 93
2020-03-19 22:00:00 12.7 2 Este 9 Norte 0 1010.1 0.6 91
2020-03-19 21:00:00 12.9 4 Norte 8 Norte 0 1010.1 0.6 87
2020-03-19 20:00:00 13.2 5 Nordeste 16 Nordeste 0 1009.9 0 83
2020-03-19 19:00:00 14 9 Nordeste 18 Nordeste 0 1009.5 -0.9 78
2020-03-19 18:00:00 14.5 7 Norte 15 Norte 0 1009.5 -1.4 81
2020-03-19 17:00:00 14.3 9 Norte 17 Nordeste 0 1009.9 -1.6 80
2020-03-19 16:00:00 14.1 10 Nordeste 21 Este 0 1010.4 -1.8 82
2020-03-19 15:00:00 14.3 16 Nordeste 26 Este 0 1010.9 -1.8 79
2020-03-19 14:00:00 15.7 12 Norte 20 Norte 0 1011.5 -1.5 76
2020-03-19 13:00:00 14.6 9 Norte 18 Nordeste 0 1012.2 -0.8 81
2020-03-19 12:00:00 13.6 12 Norte 19 Nordeste 0 1012.7 0 85
2020-03-19 11:00:00 13.3 10 Norte 19 Norte 0 1013 0.3 86
2020-03-19 10:00:00 12.6 9 Norte 18 Norte 0 1013 0.4 86
2020-03-19 09:00:00 12 4 Nordeste 9 Norte 0 1012.7 0.1 88
2020-03-19 08:00:00 11.7 4 Este 8 Nordeste 0 1012.7 0.2 90
2020-03-19 07:00:00 11.7 3 Sudeste 6 Nordeste 0 1012.6 -0.2 91
2020-03-19 06:00:00 11.7 4 Nordeste 8 Nordeste 0 1012.6 -0.8 91
2020-03-19 05:00:00 11.8 2 Este 6 Este 0 1012.5 -1.6 92
2020-03-19 04:00:00 11.8 5 Este 8 Este 0 1012.8 -1.6 92
2020-03-19 03:00:00 11.9 3 Este 5 Este 0 1013.4 -1.5 91
2020-03-19 02:00:00 12 3 Sudeste 6 Sudeste 0 1014.1 -1.2 92
2020-03-19 01:00:00 12.1 2 Este 4 Este 0 1014.4 -0.8 91
2020-03-19 00:00:00 12.2 3 Este 7 Oeste 0 1014.9 -0.1 92
2020-03-18 23:00:00 11.9 4 Oeste 5 Oeste 0 1015.3 0.7 91
2020-03-18 22:00:00 11.8 4 Sudoeste 9 Norte 0 1015.2 0.8 91
2020-03-18 21:00:00 11.6 2 Sudoeste 9 Norte 0 1015 0.8 90
2020-03-18 20:00:00 12 7 Noroeste 10 Noroeste 0 1014.6 0.3 86
2020-03-18 19:00:00 14.1 8 Este 15 Este 0 1014.4 -0.2 74
2020-03-18 18:00:00 15.4 8 Este 23 Nordeste 0 1014.2 -0.7 65
2020-03-18 17:00:00 15.6 12 Nordeste 29 Este 0 1014.3 -1.1 61
2020-03-18 16:00:00 16.1 15 Nordeste 28 Norte 0 1014.6 -1.6 63
2020-03-18 15:00:00 16.4 17 Nordeste 33 Norte 0 1014.9 -1.8 59
2020-03-18 14:00:00 16 19 Norte 31 Nordeste 0 1015.4 -1.5 63
2020-03-18 13:00:00 15.1 16 Norte 26 Norte 0 1016.2 -0.8 72
2020-03-18 12:00:00 15.1 15 Nordeste 26 Nordeste 0 1016.7 0 75
2020-03-18 11:00:00 14.3 11 Norte 19 Norte 0 1016.9 0.4 86
2020-03-18 10:00:00 13.1 12 Norte 19 Norte 0 1017 0.6 88
2020-03-18 09:00:00 13 8 Norte 18 Norte 0 1016.7 0.4 90
2020-03-18 08:00:00 12.4 12 Norte 20 Norte 0 1016.5 0.3 92
2020-03-18 07:00:00 12.8 8 Nordeste 15 Norte 0.2 1016.4 0.1 94
2020-03-18 06:00:00 12.4 10 Norte 19 Norte 0 1016.3 -0.5 92
2020-03-18 05:00:00 12.6 11 Norte 25 Norte 0 1016.2 -0.7 92
2020-03-18 04:00:00 12.8 8 Norte 21 Norte 0 1016.3 -0.7 92
2020-03-18 03:00:00 12.9 14 Norte 24 Norte 0 1016.8 -0.5 93
2020-03-18 02:00:00 12.9 12 Norte 27 Norte 0 1016.9 -0.4 93
2020-03-18 01:00:00 13.2 15 Norte 33 Norte 0 1017 -0.1 93
2020-03-18 00:00:00 13.3 13 Norte 33 Norte 0 1017.3 0.7 93
2020-03-17 23:00:00 13.4 16 Norte 33 Norte 0 1017.3 1.7 93
2020-03-17 22:00:00 13.4 21 Norte 33 Nordeste 0 1017.1 2.2 94
2020-03-17 21:00:00 13.4 19 Nordeste 35 Nordeste 0.2 1016.6 2.2 94
2020-03-17 20:00:00 13.5 18 Nordeste 35 Nordeste 0 1015.6 1.5 94
2020-03-17 19:00:00 13.7 20 Nordeste 36 Nordeste 0.4 1014.9 0.8 94
2020-03-17 18:00:00 12.9 5 Nordeste 14 Nordeste 0.6 1014.4 0.5 94
2020-03-17 17:00:00 12.2 3 Sudoeste 7 Norte 1.6 1014.1 -0.1 93
2020-03-17 16:00:00 12.3 0 Calma 5 Sudeste 0.6 1014.1 -0.4 92
2020-03-17 15:00:00 12.6 3 Este 7 Sudeste 0.4 1013.9 -0.7 90
2020-03-17 14:00:00 12.3 2 Oeste 10 Sudoeste 0 1014.2 -0.6 88
2020-03-17 13:00:00 11.8 6 Sudoeste 10 Oeste 0.4 1014.5 0.3 90
2020-03-17 12:00:00 11 6 Sudoeste 10 Sudoeste 0.8 1014.6 1.1 91
2020-03-17 11:00:00 10.3 2 Oeste 7 Noroeste 1.8 1014.8 2.2 92
2020-03-17 10:00:00 10 2 Noroeste 5 Sudeste 0 1014.2 2.2 93
2020-03-17 09:00:00 9.3 2 Oeste 9 Sudoeste 0 1013.5 2.4 93
2020-03-17 08:00:00 9 5 Oeste 9 Oeste 2.2 1012.6 2.2 93
2020-03-17 07:00:00 8.9 3 Oeste 8 Oeste 2.6 1012 2.3 93
2020-03-17 06:00:00 9.1 2 Sudeste 9 Sudeste 0 1011.1 1.4 93
2020-03-17 05:00:00 9 3 Sudeste 9 Oeste 1 1010.4 1.1 92
2020-03-17 04:00:00 9 5 Oeste 9 Oeste 1 1009.7 0.4 92
2020-03-17 03:00:00 9 0 Calma 10 Sudoeste 0.4 1009.7 0.6 89
2020-03-17 02:00:00 9.1 4 Norte 6 Nordeste 0.2 1009.3 0.9 91
2020-03-17 01:00:00 9.2 2 Noroeste 8 Sudoeste 0 1009.3 1.7 88
2020-03-17 00:00:00 9.2 4 Sudoeste 8 Sudoeste 0 1009.1 2 85
2020-03-16 23:00:00 8.9 4 Oeste 6 Oeste 0 1008.4 2.3 91
2020-03-16 22:00:00 8.9 0 Calma 9 Este 0.4 1007.6 2.7 90
2020-03-16 21:00:00 8.7 0 Calma 10 Oeste 0.2 1007.1 2.7 85
2020-03-16 20:00:00 8.8 5 Sudoeste 12 Oeste 0.4 1006.1 2 82
2020-03-16 19:00:00 9.1 4 Norte 14 Noroeste 0 1004.9 1.3 79
2020-03-16 18:00:00 9.8 5 Este 12 Este 0.2 1004.4 0.9 84
2020-03-16 17:00:00 9.8 9 Este 14 Nordeste 0 1004.1 0.3 83
2020-03-16 16:00:00 10.6 5 Oeste 13 Noroeste 0.8 1003.6 0.2 75
2020-03-16 15:00:00 9.6 5 Noroeste 11 Noroeste 0.6 1003.5 0.5 87
2020-03-16 14:00:00 9.4 3 Noroeste 17 Oeste 0.8 1003.8 2.2 88
2020-03-16 13:00:00 9.4 9 Oeste 19 Noroeste 1.4 1003.4 2.3 87
2020-03-16 12:00:00 10.8 8 Oeste 50 Noroeste 0 1003 2.3 75
2020-03-16 11:00:00 14.5 15 Noroeste 44 Noroeste 0 1001.6 1.2 80
2020-03-16 10:00:00 15 5 Norte 11 Este 0 1001.1 1 79
2020-03-16 09:00:00 14.5 2 Nordeste 8 Sur 0 1000.7 0.6 80
2020-03-16 08:00:00 13.7 4 Sur 11 Sudeste 0 1000.4 0.1 85
2020-03-16 07:00:00 13.2 2 Sudeste 7 Este 0 1000.1 -0.7 92
2020-03-16 06:00:00 13.1 3 Noroeste 7 Sudeste 0 1000.1 -2.3 92
2020-03-16 05:00:00 13.3 8 Este 12 Sudeste 0.2 1000.3 -2.4 91
2020-03-16 04:00:00 13.4 3 Norte 9 Oeste 0 1000.8 -2.9 89
2020-03-16 03:00:00 13.5 0 Calma 5 Norte 0 1002.4 -1.6 87
2020-03-16 02:00:00 13.9 2 Este 10 Este 0 1002.7 -1.6 84
2020-03-16 01:00:00 14.2 4 Oeste 10 Oeste 0 1003.7 -0.4 81
2020-03-16 00:00:00 14.2 4 Norte 10 Nordeste 0 1004 0 82
2020-03-15 23:00:00 14.2 0 Calma 10 Norte 0 1004.3 0.9 83
2020-03-15 22:00:00 14.1 2 Norte 10 Oeste 0 1004.1 1.2 83
2020-03-15 21:00:00 14.1 5 Noroeste 17 Oeste 0 1004 1.6 82
2020-03-15 20:00:00 14.7 10 Noroeste 18 Oeste 0 1003.4 0.7 79
2020-03-15 19:00:00 16.3 6 Noroeste 23 Noroeste 0 1002.9 -0.5 70
2020-03-15 18:00:00 18.9 9 Norte 21 Nordeste 0 1002.4 -1.9 58
2020-03-15 17:00:00 20.5 11 Norte 23 Este 0 1002.7 -2.8 51
2020-03-15 16:00:00 20.8 14 Nordeste 23 Nordeste 0 1003.4 -3.3 51
2020-03-15 15:00:00 21 9 Nordeste 28 Norte 0 1004.3 -3.4 54
2020-03-15 14:00:00 20.4 11 Norte 21 Noroeste 0 1005.5 -2.8 51
2020-03-15 13:00:00 19.8 6 Nordeste 18 Este 0 1006.7 -1.9 53
2020-03-15 12:00:00 19.1 4 Nordeste 15 Nordeste 0 1007.7 -0.8 54
2020-03-15 11:00:00 17.5 6 Nordeste 13 Nordeste 0 1008.3 0.2 62
2020-03-15 10:00:00 15.8 4 Nordeste 13 Norte 0 1008.6 0.6 72
2020-03-15 09:00:00 13.6 3 Nordeste 4 Este 0 1008.5 0.5 86
2020-03-15 08:00:00 12.5 0 Calma 7 Nordeste 0 1008.1 0 87
2020-03-15 07:00:00 12.9 4 Este 6 Oeste 0 1008 -0.3 85
2020-03-15 06:00:00 13.1 3 Oeste 7 Noroeste 0 1008 -1 83
2020-03-15 05:00:00 13.3 3 Oeste 6 Sudoeste 0 1008.1 -1.2 85
2020-03-15 04:00:00 13.4 4 Oeste 7 Oeste 0 1008.3 -1.3 85
2020-03-15 03:00:00 13.5 3 Oeste 8 Oeste 0 1009 -0.8 85
2020-03-15 02:00:00 13.5 4 Oeste 8 Oeste 0 1009.3 -0.4 84
2020-03-15 01:00:00 13.8 0 Calma 5 Oeste 0 1009.6 0 86
2020-03-15 00:00:00 13.4 3 Sudoeste 6 Sudoeste 0 1009.8 0.5 85
2020-03-14 23:00:00 13.6 4 Noroeste 9 Oeste 0 1009.7 1.1 88
2020-03-14 22:00:00 13.4 4 Oeste 11 Sudoeste 0 1009.6 1.7 86
2020-03-14 21:00:00 14.1 9 Sudoeste 13 Oeste 0 1009.3 2 83
2020-03-14 20:00:00 14.9 7 Oeste 15 Oeste 0 1008.6 1.7 76
2020-03-14 19:00:00 16.5 5 Noroeste 26 Norte 0 1007.9 0.7 71
2020-03-14 18:00:00 19.7 16 Norte 28 Noroeste 0 1007.3 -0.2 58
2020-03-14 17:00:00 21.8 14 Norte 27 Norte 0 1006.9 -1.6 49
2020-03-14 16:00:00 22.5 15 Norte 28 Norte 0 1007.2 -2.2 42
2020-03-14 15:00:00 22.9 8 Nordeste 15 Oeste 0 1007.5 -2.7 38
2020-03-14 14:00:00 22.4 5 Norte 15 Norte 0 1008.5 -2.2 41
2020-03-14 13:00:00 21.1 5 Sudeste 16 Este 0 1009.4 -1.1 42
2020-03-14 12:00:00 19.3 6 Este 15 Este 0 1010.2 0.5 50
2020-03-14 11:00:00 17 5 Nordeste 11 Nordeste 0 1010.7 1.4 59
2020-03-14 10:00:00 15 3 Este 9 Nordeste 0 1010.5 1.6 69
2020-03-14 09:00:00 11.6 3 Noroeste 7 Noroeste 0 1009.7 1.1 85
2020-03-14 08:00:00 9.4 3 Oeste 10 Sudoeste 0 1009.3 0.9 90
2020-03-14 07:00:00 9 4 Oeste 8 Oeste 0 1008.9 0.3 91
2020-03-14 06:00:00 9.6 6 Oeste 8 Oeste 0 1008.6 -0.5 89
2020-03-14 05:00:00 10.2 3 Oeste 8 Oeste 0 1008.4 -1.1 90
2020-03-14 04:00:00 10.5 2 Oeste 11 Oeste 0 1008.6 -1 91
2020-03-14 03:00:00 10.7 6 Oeste 9 Oeste 0 1009.1 -0.6 90
2020-03-14 02:00:00 11.2 3 Sudoeste 8 Norte 0 1009.5 -0.3 90
2020-03-14 01:00:00 12.1 3 Nordeste 5 Oeste 0 1009.6 0.2 87
2020-03-14 00:00:00 13 3 Oeste 8 Oeste 0 1009.7 0.8 87
2020-03-13 23:00:00 13 5 Oeste 8 Oeste 0 1009.8 1.2 86
2020-03-13 22:00:00 13.1 5 Oeste 8 Noroeste 0 1009.4 1.3 85
2020-03-13 21:00:00 13.4 6 Norte 8 Norte 0 1008.9 1 85
2020-03-13 20:00:00 14.1 4 Norte 14 Norte 0 1008.6 0.5 79
2020-03-13 19:00:00 15.6 8 Norte 19 Norte 0 1008.1 -0.2 69
2020-03-13 18:00:00 16.8 11 Norte 21 Norte 0 1007.9 -0.8 64
2020-03-13 17:00:00 17.7 14 Norte 25 Nordeste 0 1008.1 -1.3 61
2020-03-13 16:00:00 18.2 14 Norte 66 Este 0 1008.3 -1.9 58
2020-03-13 15:00:00 18.6 13 Norte 23 Norte 0 1008.7 -1.6 56
2020-03-13 14:00:00 18.5 12 Norte 23 Nordeste 0 1009.4 -1.1 57
2020-03-13 13:00:00 17 13 Norte 20 Norte 0 1010.2 -0.2 62
2020-03-13 12:00:00 17.5 10 Nordeste 18 Norte 0 1010.3 0.1 58
2020-03-13 11:00:00 16.6 8 Norte 18 Nordeste 0 1010.5 1 63
2020-03-13 10:00:00 14.8 8 Norte 14 Norte 0 1010.4 1.6 78
2020-03-13 09:00:00 13.2 3 Oeste 9 Oeste 0 1010.2 1.9 85
2020-03-13 08:00:00 12.9 5 Oeste 8 Oeste 0 1009.5 1.5 86
2020-03-13 07:00:00 12.6 4 Sudoeste 10 Sudoeste 0 1008.8 1.1 85
2020-03-13 06:00:00 12 6 Oeste 14 Oeste 0 1008.3 0.6 87
2020-03-13 05:00:00 11.2 9 Sudoeste 13 Sudoeste 0 1008 0.2 88
2020-03-13 04:00:00 10.1 5 Oeste 8 Oeste 0 1007.7 -0.1 91
2020-03-13 03:00:00 11.1 4 Noroeste 6 Oeste 0 1007.7 -0.2 93
2020-03-13 02:00:00 12 4 Oeste 8 Oeste 0 1007.8 0 93
2020-03-13 01:00:00 13.1 3 Oeste 6 Este 0 1007.8 0.4 93
2020-03-13 00:00:00 13.2 2 Este 6 Este 0 1007.9 0.9 92
2020-03-12 23:00:00 13.1 5 Este 10 Oeste 0 1007.8 1 88
2020-03-12 22:00:00 14 5 Oeste 10 Oeste 0 1007.4 1 84
2020-03-12 21:00:00 14.9 4 Este 10 Este 0 1007 1.3 78
2020-03-12 20:00:00 16.3 6 Este 13 Nordeste 0 1006.8 1 68
2020-03-12 19:00:00 18.5 6 Nordeste 13 Nordeste 0 1006.4 0.3 56
2020-03-12 18:00:00 20.9 8 Nordeste 20 Norte 0 1005.7 -1 51
2020-03-12 17:00:00 23.4 14 Norte 21 Norte 0 1005.8 -2.1 46
2020-03-12 16:00:00 24.6 13 Norte 21 Norte 0 1006.1 -3 42
2020-03-12 15:00:00 26 11 Norte 18 Norte 0 1006.7 -3.3 36
2020-03-12 14:00:00 25.4 7 Nordeste 15 Este 0 1007.9 -2.4 33
2020-03-12 13:00:00 24.1 4 Este 15 Este 0 1009.1 -1.1 34
2020-03-12 12:00:00 22.1 6 Este 13 Nordeste 0 1010 -0.2 39
2020-03-12 11:00:00 20.7 4 Nordeste 10 Nordeste 0 1010.3 0.4 46
2020-03-12 10:00:00 18 4 Este 8 Este 0 1010.2 0.5 55
2020-03-12 09:00:00 13.5 2 Oeste 8 Sudoeste 0 1010.2 0.6 69
2020-03-12 08:00:00 10.8 5 Sudoeste 12 Sudoeste 0 1009.9 0.2 75
2020-03-12 07:00:00 10.1 7 Sudoeste 12 Sudoeste 0 1009.7 -0.4 77
2020-03-12 06:00:00 9.9 6 Sudoeste 13 Sudoeste 0 1009.6 -1.3 78
2020-03-12 05:00:00 10.7 8 Sudoeste 14 Sudoeste 0 1009.7 -1.8 76
2020-03-12 04:00:00 10.5 8 Sudoeste 13 Oeste 0 1010.1 -1.5 77
2020-03-12 03:00:00 11 9 Sudoeste 13 Sudoeste 0 1010.9 -1.1 76
2020-03-12 02:00:00 11.1 8 Sudoeste 10 Sudoeste 0 1011.5 -0.8 75
2020-03-12 01:00:00 11.7 6 Sudoeste 8 Sudoeste 0 1011.6 -0.9 74
2020-03-12 00:00:00 11.7 4 Oeste 9 Oeste 0 1012 -0.3 74
2020-03-11 23:00:00 13 5 Sudoeste 8 Oeste 0 1012.3 0.4 73
2020-03-11 22:00:00 14.3 4 Oeste 6 Oeste 0 1012.5 1.4 68
2020-03-11 21:00:00 15.4 4 Sudeste 15 Nordeste 0 1012.3 2.1 65
2020-03-11 20:00:00 16.7 8 Nordeste 17 Norte 0 1011.9 2.3 58
2020-03-11 19:00:00 19.1 9 Norte 21 Norte 0 1011.1 1.4 49
2020-03-11 18:00:00 23.5 5 Nordeste 26 Norte 0 1010.2 0.2 31
2020-03-11 17:00:00 26.4 16 Norte 26 Norte 0 1009.6 -1.2 29
2020-03-11 16:00:00 28.3 17 Norte 25 Norte 0 1009.7 -2 26
2020-03-11 15:00:00 29.5 11 Nordeste 22 Nordeste 0 1010 -2.5 22
2020-03-11 14:00:00 29 5 Este 13 Nordeste 0 1010.8 -2 20
2020-03-11 13:00:00 27.9 2 Sudeste 9 Este 0 1011.7 -1.2 22
2020-03-11 12:00:00 25.6 6 Este 10 Este 0 1012.5 -0.3 28
2020-03-11 11:00:00 23.2 3 Este 8 Este 0 1012.8 0.5 34
2020-03-11 10:00:00 19.6 3 Este 6 Este 0 1012.9 0.9 46
2020-03-11 09:00:00 14.9 2 Este 6 Sudoeste 0 1012.8 1.1 60
2020-03-11 08:00:00 10 4 Oeste 6 Sudoeste 0 1012.3 0.6 74
2020-03-11 07:00:00 10.8 0 Calma 13 Oeste 0 1012 -0.1 68
2020-03-11 06:00:00 11.2 4 Oeste 11 Sudoeste 0 1011.7 -0.7 66
2020-03-11 05:00:00 10.5 2 Noroeste 12 Sudoeste 0 1011.7 -0.9 71
2020-03-11 04:00:00 11.1 5 Sudoeste 10 Oeste 0 1012.1 -0.4 70
2020-03-11 03:00:00 10.7 5 Oeste 9 Oeste 0 1012.4 -0.3 75
2020-03-11 02:00:00 10.9 4 Oeste 8 Oeste 0 1012.6 -0.5 75
2020-03-11 01:00:00 11.8 2 Norte 9 Oeste 0 1012.5 -0.1 72
2020-03-11 00:00:00 12.1 5 Oeste 9 Sudoeste 0 1012.7 0.4 72
2020-03-10 23:00:00 14.9 4 Este 11 Nordeste 0 1013.1 1.3 59
2020-03-10 22:00:00 15.9 5 Este 13 Este 0 1012.6 1.3 55
2020-03-10 21:00:00 17.5 9 Este 23 Nordeste 0 1012.3 1.2 48
2020-03-10 20:00:00 18.9 5 Norte 11 Sur 0 1011.8 0.3 45
2020-03-10 19:00:00 23.1 6 Sur 13 Sur 0 1011.3 -0.7 27
2020-03-10 18:00:00 25.4 6 Sur 13 Sudeste 0 1011.1 -1.8 23
2020-03-10 17:00:00 24.9 6 Este 14 Este 0 1011.5 -2.1 25
2020-03-10 16:00:00 25.5 4 Norte 10 Nordeste 0 1012 -2.7 24
2020-03-10 15:00:00 23.9 5 Sudeste 12 Este 0 1012.9 -2.6 23
2020-03-10 14:00:00 22 5 Norte 11 Noroeste 0 1013.6 -2.1 28
2020-03-10 13:00:00 21.2 4 Oeste 11 Este 0 1014.7 -0.8 29
2020-03-10 12:00:00 19.8 6 Oeste 14 Oeste 0 1015.5 0.3 30
2020-03-10 11:00:00 18.6 3 Norte 7 Noroeste 0 1015.7 1 36
2020-03-10 10:00:00 16.8 2 Nordeste 9 Nordeste 0 1015.5 1 39
2020-03-10 09:00:00 12.5 0 Calma 11 Oeste 0 1015.2 1.5 54
2020-03-10 08:00:00 8.4 4 Oeste 12 Oeste 0 1014.7 1.4 66
2020-03-10 07:00:00 7.7 5 Sudoeste 9 Oeste 0 1014.5 1.7 68
2020-03-10 06:00:00 7.7 2 Nordeste 12 Sudoeste 0 1013.7 0.7 69
2020-03-10 05:00:00 8.4 6 Sudoeste 9 Sudoeste 0 1013.3 0.5 65
2020-03-10 04:00:00 8.4 3 Oeste 8 Oeste 0 1012.8 0.1 67
2020-03-10 03:00:00 9.4 4 Oeste 9 Sudoeste 0 1013 0.3 62
2020-03-10 02:00:00 9.7 6 Oeste 13 Sudoeste 0 1012.8 0.5 60
2020-03-10 01:00:00 10.9 8 Sudoeste 13 Sudoeste 0 1012.7 0.9 56
2020-03-10 00:00:00 13 5 Sur 17 Oeste 0 1012.7 1.6 46